createdAt,value
2023-02-23T00:01:25.257Z,-13.95
2023-02-23T00:04:30.396Z,-13.93
2023-02-23T00:07:34.706Z,-13.89
2023-02-23T00:10:38.793Z,-13.85
2023-02-23T00:13:46.655Z,-13.84
2023-02-23T00:16:50.654Z,-13.73
2023-02-23T00:19:54.524Z,-13.62
2023-02-23T00:22:59.086Z,-13.55
2023-02-23T00:26:05.003Z,-13.44
2023-02-23T00:29:13.540Z,-13.36
2023-02-23T00:32:20.601Z,-13.15
2023-02-23T00:35:25.895Z,-12.76
2023-02-23T00:38:29.528Z,-12.63
2023-02-23T00:41:33.534Z,-12.48
2023-02-23T00:44:41.113Z,-12.32
2023-02-23T00:47:46.063Z,-12.17
2023-02-23T00:51:02.545Z,-11.56
2023-02-23T00:54:05.913Z,-10.36
2023-02-23T00:57:09.627Z,-9.37
2023-02-23T01:00:21.984Z,-8.64
2023-02-23T01:03:24.984Z,-8.08
2023-02-23T01:06:28.992Z,-7.70
2023-02-23T01:09:34.235Z,-7.44
2023-02-23T01:12:40.979Z,-6.96
2023-02-23T01:15:45.212Z,-7.05
2023-02-23T01:18:49.834Z,-6.86
2023-02-23T01:21:53.831Z,-6.65
2023-02-23T01:24:57.370Z,-6.45
2023-02-23T01:28:01.566Z,-6.32
2023-02-23T01:31:10.286Z,-6.19
2023-02-23T01:34:14.939Z,-5.50
2023-02-23T01:37:21.007Z,-5.02
2023-02-23T01:40:32.094Z,-5.18
2023-02-23T01:43:38.009Z,-5.19
2023-02-23T01:46:47.028Z,-5.08
2023-02-23T01:49:52.509Z,-5.35
2023-02-23T01:52:57.239Z,-5.11
2023-02-23T01:56:30.060Z,-5.28
2023-02-23T01:59:53.264Z,-5.00
2023-02-23T02:02:59.072Z,-5.38
2023-02-23T02:06:04.956Z,-5.16
2023-02-23T02:09:17.846Z,-5.09
2023-02-23T02:12:23.890Z,-4.57
2023-02-23T02:15:33.838Z,-4.57
2023-02-23T02:18:48.328Z,-4.33
2023-02-23T02:22:07.172Z,-3.94
2023-02-23T02:25:30.005Z,-4.21
2023-02-23T02:28:33.611Z,-4.44
2023-02-23T02:32:12.652Z,-4.39
2023-02-23T02:35:39.541Z,-4.39
2023-02-23T02:39:11.102Z,-4.12
2023-02-23T02:42:18.558Z,-4.15
2023-02-23T02:45:29.762Z,-4.04
2023-02-23T02:49:15.351Z,-3.81
2023-02-23T02:52:18.702Z,-3.73
2023-02-23T02:55:28.975Z,-3.56
2023-02-23T02:58:34.688Z,-3.32
2023-02-23T03:01:57.030Z,-3.25
2023-02-23T03:05:19.350Z,-2.80
2023-02-23T03:08:51.069Z,-2.97
2023-02-23T03:12:26.865Z,-3.19
2023-02-23T03:16:01.455Z,-3.07
2023-02-23T03:19:34.563Z,-3.17
2023-02-23T03:23:12.910Z,-2.94
2023-02-23T03:27:01.775Z,-2.75
2023-02-23T03:30:34.788Z,-2.68
2023-02-23T03:34:04.116Z,-2.91
2023-02-23T03:37:37.882Z,-2.51
2023-02-23T03:41:03.221Z,-2.89
2023-02-23T03:44:32.708Z,-3.12
2023-02-23T03:47:58.680Z,-2.93
2023-02-23T03:51:26.070Z,-3.11
2023-02-23T03:54:55.538Z,-3.23
2023-02-23T03:58:21.275Z,-3.27
2023-02-23T04:01:45.910Z,-3.19
2023-02-23T04:05:09.017Z,-3.09
2023-02-23T04:08:34.044Z,-3.04
2023-02-23T04:12:11.379Z,-3.15
2023-02-23T04:15:34.816Z,-3.11
2023-02-23T04:18:40.601Z,-3.00
2023-02-23T04:21:43.501Z,-3.00
2023-02-23T04:24:49.410Z,-3.08
2023-02-23T04:27:52.687Z,-3.35
2023-02-23T04:30:56.709Z,-3.33
2023-02-23T04:34:00.353Z,-3.44
2023-02-23T04:37:04.025Z,-3.53
2023-02-23T04:40:07.813Z,-3.27
2023-02-23T04:43:14.475Z,-3.47
2023-02-23T04:46:18.302Z,-3.46
2023-02-23T04:49:45.800Z,-3.70
2023-02-23T04:52:49.665Z,-3.86
2023-02-23T04:55:52.499Z,-3.71
2023-02-23T04:58:56.527Z,-3.62
2023-02-23T05:02:01.140Z,-3.54
2023-02-23T05:05:05.398Z,-3.13
2023-02-23T05:08:08.486Z,-2.97
2023-02-23T05:11:13.172Z,-2.81
2023-02-23T05:14:16.703Z,-2.94
2023-02-23T05:17:19.625Z,-2.86
2023-02-23T05:20:23.406Z,-3.04
2023-02-23T05:23:26.365Z,-3.19
2023-02-23T05:26:29.426Z,-3.29
2023-02-23T05:29:33.587Z,-3.36
2023-02-23T05:32:37.503Z,-3.17
2023-02-23T05:35:42.432Z,-2.71
2023-02-23T05:38:47.076Z,-2.45
2023-02-23T05:41:51.103Z,-2.70
2023-02-23T05:44:54.006Z,-2.71
2023-02-23T05:47:57.349Z,-2.58
2023-02-23T05:51:05.570Z,-2.71
2023-02-23T05:54:10.053Z,-2.59
2023-02-23T05:57:13.266Z,-2.67
2023-02-23T06:00:18.589Z,-2.80
2023-02-23T06:03:23.183Z,-2.85
2023-02-23T06:06:29.233Z,-2.69
2023-02-23T06:09:32.139Z,-2.71
2023-02-23T06:12:35.553Z,-2.57
2023-02-23T06:15:38.920Z,-2.44
2023-02-23T06:18:42.011Z,-2.53
2023-02-23T06:21:45.585Z,-2.50
2023-02-23T06:24:50.696Z,-2.36
2023-02-23T06:27:55.319Z,-2.14
2023-02-23T06:30:59.070Z,-1.92
2023-02-23T06:34:02.785Z,-1.85
2023-02-23T06:37:09.162Z,-1.86
2023-02-23T06:40:12.692Z,-1.96
2023-02-23T06:43:16.739Z,-1.98
2023-02-23T06:46:20.491Z,-1.96
2023-02-23T06:49:24.557Z,-1.89
2023-02-23T06:52:28.170Z,-1.93
2023-02-23T06:55:31.953Z,-1.93
2023-02-23T06:58:34.851Z,-1.88
2023-02-23T07:01:38.692Z,-1.92
2023-02-23T07:04:42.321Z,-2.09
2023-02-23T07:07:46.067Z,-2.17
2023-02-23T07:10:49.100Z,-2.08
2023-02-23T07:13:52.042Z,-1.96
2023-02-23T07:16:56.021Z,-2.11
2023-02-23T07:19:59.032Z,-2.16
2023-02-23T07:23:02.940Z,-2.19
2023-02-23T07:26:06.730Z,-2.23
2023-02-23T07:29:13.293Z,-2.10
2023-02-23T07:32:16.431Z,-2.12
2023-02-23T07:35:20.408Z,-2.14
2023-02-23T07:38:23.352Z,-2.03
2023-02-23T07:41:26.966Z,-2.10
2023-02-23T07:44:29.790Z,-2.10
2023-02-23T07:47:33.117Z,-2.12
2023-02-23T07:50:36.277Z,-2.17
2023-02-23T07:53:41.525Z,-2.15
2023-02-23T07:56:45.201Z,-2.09
2023-02-23T07:59:49.665Z,-2.33
2023-02-23T08:02:53.893Z,-2.44
2023-02-23T08:05:57.895Z,-2.45
2023-02-23T08:09:02.419Z,-2.44
2023-02-23T08:12:06.903Z,-2.44
2023-02-23T08:15:11.375Z,-2.44
2023-02-23T08:18:15.231Z,-2.36
2023-02-23T08:21:19.575Z,-2.31
2023-02-23T08:24:23.393Z,-2.11
2023-02-23T08:27:27.485Z,-2.12
2023-02-23T08:30:32.278Z,-2.37
2023-02-23T08:33:36.217Z,-2.25
2023-02-23T08:36:39.768Z,-2.05
2023-02-23T08:39:43.674Z,-2.17
2023-02-23T08:42:46.920Z,-2.26
2023-02-23T08:45:50.597Z,-2.33
2023-02-23T08:48:54.291Z,-2.28
2023-02-23T08:51:57.458Z,-2.39
2023-02-23T08:55:01.091Z,-2.55
2023-02-23T08:58:09.133Z,-2.51
2023-02-23T09:01:22.479Z,-2.34
2023-02-23T09:04:26.386Z,-2.37
2023-02-23T09:07:29.673Z,-2.21
2023-02-23T09:10:34.377Z,-2.31
2023-02-23T09:13:37.369Z,-2.52
2023-02-23T09:16:40.642Z,-2.67
2023-02-23T09:19:44.129Z,-2.83
2023-02-23T09:22:50.534Z,-2.92
2023-02-23T09:25:54.251Z,-2.94
2023-02-23T09:29:00.814Z,-2.90
2023-02-23T09:32:04.778Z,-2.98
2023-02-23T09:35:09.178Z,-3.13
2023-02-23T09:38:12.125Z,-3.25
2023-02-23T09:42:01.475Z,-3.29
2023-02-23T09:45:16.125Z,-3.45
2023-02-23T09:48:28.284Z,-3.54
2023-02-23T09:51:38.707Z,-3.61
2023-02-23T09:54:42.152Z,-3.69
2023-02-23T09:57:49.133Z,-3.72
2023-02-23T10:01:07.637Z,-3.74
2023-02-23T10:04:38.373Z,-3.76
2023-02-23T10:08:00.849Z,-3.79
2023-02-23T10:11:17.744Z,-3.89
2023-02-23T10:14:40.345Z,-3.99
2023-02-23T10:18:08.270Z,-4.08
2023-02-23T10:21:21.293Z,-4.22
2023-02-23T10:24:33.624Z,-4.34
2023-02-23T10:27:44.732Z,-4.55
2023-02-23T10:30:48.875Z,-4.74
2023-02-23T10:33:54.003Z,-4.86
2023-02-23T10:37:03.247Z,-5.08
2023-02-23T10:40:08.571Z,-5.24
2023-02-23T10:43:14.167Z,-5.49
2023-02-23T10:46:23.651Z,-5.68
2023-02-23T10:49:51.346Z,-5.95
2023-02-23T10:53:08.142Z,-6.27
2023-02-23T10:56:19.002Z,-6.46
2023-02-23T10:59:23.263Z,-6.44
2023-02-23T11:02:27.773Z,-6.44
2023-02-23T11:05:47.047Z,-6.52
2023-02-23T11:08:50.650Z,-6.64
2023-02-23T11:11:59.007Z,-6.72
2023-02-23T11:15:46.501Z,-6.69
2023-02-23T11:19:02.645Z,-6.86
2023-02-23T11:22:07.441Z,-7.12
2023-02-23T11:25:30.194Z,-7.36
2023-02-23T11:28:38.584Z,-7.39
2023-02-23T11:31:49.635Z,-7.47
2023-02-23T11:35:12.979Z,-7.35
2023-02-23T11:38:30.244Z,-7.28
2023-02-23T11:41:35.746Z,-7.28
2023-02-23T11:44:39.591Z,-7.34
2023-02-23T11:47:49.445Z,-7.40
2023-02-23T11:50:55.136Z,-7.38
2023-02-23T11:54:00.889Z,-7.42
2023-02-23T11:57:04.848Z,-7.55
2023-02-23T12:00:14.822Z,-7.62
2023-02-23T12:03:24.258Z,-7.60
2023-02-23T12:06:39.521Z,-7.78
2023-02-23T12:09:46.027Z,-7.88
2023-02-23T12:13:24.014Z,-7.94
2023-02-23T12:16:34.224Z,-7.97
2023-02-23T12:19:47.624Z,-8.00
2023-02-23T12:23:08.883Z,-8.04
2023-02-23T12:26:19.745Z,-7.94
2023-02-23T12:29:45.375Z,-7.94
2023-02-23T12:32:49.651Z,-8.04
2023-02-23T12:36:02.709Z,-8.14
2023-02-23T12:39:22.168Z,-8.23
2023-02-23T12:42:39.837Z,-8.45
2023-02-23T12:45:53.850Z,-8.55
2023-02-23T12:49:14.775Z,-8.57
2023-02-23T12:52:26.436Z,-8.70
2023-02-23T12:55:42.431Z,-8.78
2023-02-23T12:58:58.129Z,-8.86
2023-02-23T13:02:09.310Z,-8.98
2023-02-23T13:05:29.451Z,-9.07
2023-02-23T13:08:48.564Z,-9.13
2023-02-23T13:12:13.213Z,-9.19
2023-02-23T13:15:31.983Z,-9.27
2023-02-23T13:18:42.328Z,-9.29
2023-02-23T13:21:56.934Z,-9.36
2023-02-23T13:25:05.395Z,-9.41
2023-02-23T13:28:18.600Z,-9.46
2023-02-23T13:31:24.829Z,-9.52
2023-02-23T13:34:34.543Z,-9.52
2023-02-23T13:38:18.915Z,-9.53
2023-02-23T13:41:43.632Z,-9.51
2023-02-23T13:45:23.669Z,-9.56
2023-02-23T13:48:41.812Z,-9.63
2023-02-23T13:52:03.513Z,-9.69
2023-02-23T13:55:29.452Z,-9.70
2023-02-23T13:58:38.014Z,-9.76
2023-02-23T14:01:46.073Z,-9.96
2023-02-23T14:04:50.841Z,-10.14
2023-02-23T14:08:05.220Z,-10.21
2023-02-23T14:11:08.517Z,-10.12
2023-02-23T14:14:36.939Z,-10.25
2023-02-23T14:17:41.435Z,-10.29
2023-02-23T14:21:10.324Z,-10.28
2023-02-23T14:24:25.184Z,-10.28
2023-02-23T14:27:44.584Z,-10.30
2023-02-23T14:30:53.849Z,-10.22
2023-02-23T14:34:01.432Z,-10.18
2023-02-23T14:37:26.107Z,-10.23
2023-02-23T14:40:35.764Z,-10.40
2023-02-23T14:43:39.737Z,-10.51
2023-02-23T14:46:56.310Z,-10.54
2023-02-23T14:50:03.840Z,-10.52
2023-02-23T14:53:15.694Z,-10.52
2023-02-23T14:56:32.587Z,-10.35
2023-02-23T14:59:43.537Z,-10.31
2023-02-23T15:03:14.601Z,-10.49
2023-02-23T15:06:17.589Z,-10.53
2023-02-23T15:09:31.594Z,-10.58
2023-02-23T15:12:39.736Z,-10.62
2023-02-23T15:15:47.878Z,-10.66
2023-02-23T15:18:52.922Z,-10.62
2023-02-23T15:21:58.876Z,-10.73
2023-02-23T15:25:10.369Z,-10.92
2023-02-23T15:28:26.266Z,-10.99
2023-02-23T15:31:31.814Z,-11.03
2023-02-23T15:34:36.150Z,-11.02
2023-02-23T15:37:45.326Z,-11.03
2023-02-23T15:40:54.186Z,-10.95
2023-02-23T15:44:08.005Z,-10.98
2023-02-23T15:47:29.336Z,-10.93
2023-02-23T15:50:37.211Z,-10.82
2023-02-23T15:53:42.235Z,-10.85
2023-02-23T15:56:50.274Z,-10.75
2023-02-23T15:59:55.073Z,-10.81
2023-02-23T16:02:58.397Z,-10.74
2023-02-23T16:06:01.333Z,-10.80
2023-02-23T16:09:27.018Z,-11.02
2023-02-23T16:12:33.882Z,-11.07
2023-02-23T16:15:39.409Z,-11.27
2023-02-23T16:18:44.158Z,-11.47
2023-02-23T16:21:57.614Z,-11.41
2023-02-23T16:25:05.769Z,-11.42
2023-02-23T16:28:16.256Z,-11.57
2023-02-23T16:31:28.565Z,-11.69
2023-02-23T16:34:45.534Z,-11.73
2023-02-23T16:38:05.296Z,-11.84
2023-02-23T16:41:18.020Z,-12.02
2023-02-23T16:44:26.350Z,-11.98
2023-02-23T16:47:49.221Z,-11.91
2023-02-23T16:50:53.226Z,-11.80
2023-02-23T16:53:57.099Z,-11.68
2023-02-23T16:57:00.803Z,-11.78
2023-02-23T17:00:16.272Z,-12.12
2023-02-23T17:03:23.642Z,-12.12
2023-02-23T17:06:27.715Z,-12.28
2023-02-23T17:09:30.645Z,-12.38
2023-02-23T17:12:34.050Z,-12.57
2023-02-23T17:15:40.089Z,-12.43
2023-02-23T17:18:43.968Z,-12.48
2023-02-23T17:21:47.545Z,-12.41
2023-02-23T17:24:50.584Z,-12.41
2023-02-23T17:27:58.575Z,-12.33
2023-02-23T17:31:04.061Z,-12.42
2023-02-23T17:34:07.957Z,-12.37
2023-02-23T17:37:11.155Z,-12.38
2023-02-23T17:40:18.956Z,-12.31
2023-02-23T17:43:24.152Z,-12.28
2023-02-23T17:46:28.054Z,-12.36
2023-02-23T17:49:31.371Z,-12.39
2023-02-23T17:52:35.176Z,-12.31
2023-02-23T17:55:38.520Z,-12.35
2023-02-23T17:58:42.279Z,-12.34
2023-02-23T18:01:48.179Z,-12.32
2023-02-23T18:04:52.617Z,-12.25
2023-02-23T18:07:55.846Z,-12.38
2023-02-23T18:10:59.404Z,-12.54
2023-02-23T18:14:05.650Z,-12.54
2023-02-23T18:17:09.397Z,-12.57
2023-02-23T18:20:15.745Z,-12.68
2023-02-23T18:23:20.888Z,-12.77
2023-02-23T18:26:25.559Z,-12.68
2023-02-23T18:29:30.528Z,-12.69
2023-02-23T18:32:33.550Z,-12.77
2023-02-23T18:35:41.895Z,-12.76
2023-02-23T18:38:45.964Z,-12.92
2023-02-23T18:41:50.771Z,-13.22
2023-02-23T18:44:54.317Z,-13.60
2023-02-23T18:47:57.444Z,-13.74
2023-02-23T18:51:02.418Z,-13.96
2023-02-23T18:54:11.020Z,-14.05
2023-02-23T18:57:14.309Z,-14.13
2023-02-23T19:00:19.706Z,-14.18
2023-02-23T19:03:23.005Z,-14.11
2023-02-23T19:06:27.392Z,-14.16
2023-02-23T19:09:31.369Z,-14.26
2023-02-23T19:12:34.529Z,-14.27
2023-02-23T19:15:37.921Z,-14.27
2023-02-23T19:18:41.802Z,-14.38
2023-02-23T19:21:45.549Z,-14.54
2023-02-23T19:24:49.410Z,-14.67
2023-02-23T19:27:52.682Z,-14.99
2023-02-23T19:31:03.081Z,-14.94
2023-02-23T19:34:09.581Z,-15.13
2023-02-23T19:37:13.005Z,-15.01
2023-02-23T19:40:23.692Z,-14.87
2023-02-23T19:43:26.891Z,-15.16
2023-02-23T19:46:30.688Z,-15.30
2023-02-23T19:49:34.258Z,-15.08
2023-02-23T19:52:39.614Z,-14.98
2023-02-23T19:55:42.746Z,-15.18
2023-02-23T19:58:47.166Z,-15.12
2023-02-23T20:01:51.929Z,-14.99
2023-02-23T20:04:55.884Z,-15.05
2023-02-23T20:08:00.030Z,-14.98
2023-02-23T20:11:06.613Z,-14.87
2023-02-23T20:14:11.441Z,-14.93
2023-02-23T20:17:15.297Z,-15.27
2023-02-23T20:20:20.261Z,-15.24
2023-02-23T20:23:24.175Z,-15.33
2023-02-23T20:26:30.363Z,-15.54
2023-02-23T20:29:35.087Z,-15.60
2023-02-23T20:32:39.442Z,-15.53
2023-02-23T20:35:43.355Z,-15.45
2023-02-23T20:38:46.270Z,-15.44
2023-02-23T20:41:54.322Z,-15.43
2023-02-23T20:44:58.004Z,-15.47
2023-02-23T20:48:02.176Z,-15.48
2023-02-23T20:51:07.737Z,-15.39
2023-02-23T20:54:11.998Z,-15.43
2023-02-23T20:57:14.868Z,-15.67
2023-02-23T21:00:23.605Z,-15.94
2023-02-23T21:03:26.638Z,-16.27
2023-02-23T21:06:33.073Z,-16.54
2023-02-23T21:09:36.159Z,-16.66
2023-02-23T21:12:39.454Z,-16.76
2023-02-23T21:15:45.131Z,-16.94
2023-02-23T21:19:04.663Z,-16.85
2023-02-23T21:22:07.707Z,-16.86
2023-02-23T21:25:12.728Z,-16.63
2023-02-23T21:28:16.636Z,-16.75
2023-02-23T21:31:20.849Z,-16.70
2023-02-23T21:34:24.715Z,-16.54
2023-02-23T21:37:27.981Z,-16.54
2023-02-23T21:40:31.824Z,-16.51
2023-02-23T21:43:37.417Z,-16.65
2023-02-23T21:46:41.006Z,-16.87
2023-02-23T21:49:50.026Z,-17.00
2023-02-23T21:52:58.353Z,-16.96
2023-02-23T21:56:07.905Z,-17.22
2023-02-23T21:59:11.388Z,-17.40
2023-02-23T22:02:14.804Z,-17.60
2023-02-23T22:05:19.451Z,-17.77
2023-02-23T22:08:22.690Z,-17.91
2023-02-23T22:11:27.998Z,-18.03
2023-02-23T22:14:31.196Z,-18.35
2023-02-23T22:17:36.860Z,-18.45
2023-02-23T22:20:45.770Z,-18.45
2023-02-23T22:23:50.677Z,-18.54
2023-02-23T22:26:56.521Z,-18.23
2023-02-23T22:30:02.150Z,-18.17
2023-02-23T22:33:05.291Z,-18.07
2023-02-23T22:36:11.282Z,-17.99
2023-02-23T22:39:19.154Z,-17.96
2023-02-23T22:42:25.275Z,-18.13
2023-02-23T22:45:28.951Z,-18.11
2023-02-23T22:48:32.127Z,-17.91
2023-02-23T22:51:35.355Z,-17.95
2023-02-23T22:54:40.309Z,-18.02
2023-02-23T22:57:44.465Z,-17.85
2023-02-23T23:01:03.846Z,-17.78
2023-02-23T23:04:10.938Z,-17.79
2023-02-23T23:07:15.055Z,-17.84
2023-02-23T23:10:19.320Z,-17.85
2023-02-23T23:13:24.405Z,-17.77
2023-02-23T23:16:32.548Z,-17.67
2023-02-23T23:19:39.425Z,-17.90
2023-02-23T23:22:42.523Z,-17.85
2023-02-23T23:25:49.404Z,-17.64
2023-02-23T23:28:58.489Z,-18.03
2023-02-23T23:32:05.607Z,-18.45
2023-02-23T23:35:14.013Z,-18.51
2023-02-23T23:38:17.814Z,-18.49
2023-02-23T23:41:21.587Z,-18.33
2023-02-23T23:44:29.955Z,-18.22
2023-02-23T23:47:32.960Z,-18.53
2023-02-23T23:50:37.109Z,-18.55
2023-02-23T23:53:41.025Z,-18.60
2023-02-23T23:56:45.330Z,-18.70
2023-02-23T23:59:49.475Z,-18.74
